createdAt,value
2022-11-12T00:00:17.402Z,101902.69
2022-11-12T00:03:38.610Z,101894.84
2022-11-12T00:06:59.606Z,101906.69
2022-11-12T00:10:21.538Z,101913.34
2022-11-12T00:13:42.848Z,101911.66
2022-11-12T00:17:04.536Z,101921.50
2022-11-12T00:20:25.753Z,101922.06
2022-11-12T00:23:46.577Z,101918.56
2022-11-12T00:27:07.919Z,101909.16
2022-11-12T00:30:30.689Z,101911.56
2022-11-12T00:33:52.998Z,101909.91
2022-11-12T00:37:14.041Z,101923.75
2022-11-12T00:40:35.406Z,101914.75
2022-11-12T00:43:56.469Z,101911.31
2022-11-12T00:47:17.686Z,101923.06
2022-11-12T00:50:38.933Z,101925.91
2022-11-12T00:53:59.961Z,101909.28
2022-11-12T00:57:22.677Z,101917.00
2022-11-12T01:00:45.214Z,101929.06
2022-11-12T01:04:06.094Z,101930.47
2022-11-12T01:07:29.220Z,101922.56
2022-11-12T01:10:50.651Z,101929.94
2022-11-12T01:14:12.905Z,101934.88
2022-11-12T01:17:35.035Z,101931.09
2022-11-12T01:20:57.559Z,101935.25
2022-11-12T01:24:21.152Z,101928.97
2022-11-12T01:27:43.006Z,101928.25
2022-11-12T01:31:26.667Z,101937.38
2022-11-12T01:34:48.452Z,101929.31
2022-11-12T01:38:09.937Z,101928.00
2022-11-12T01:41:33.482Z,101931.69
2022-11-12T01:44:54.626Z,101927.19
2022-11-12T01:48:34.029Z,101935.19
2022-11-12T01:52:00.393Z,101920.44
2022-11-12T01:55:25.673Z,101910.72
2022-11-12T01:58:48.003Z,101925.41
2022-11-12T02:02:09.313Z,101930.72
2022-11-12T02:05:31.114Z,101939.47
2022-11-12T02:08:52.534Z,101934.13
2022-11-12T02:12:33.471Z,101944.44
2022-11-12T02:15:54.373Z,101959.41
2022-11-12T02:19:16.506Z,101955.41
2022-11-12T02:22:38.114Z,101956.28
2022-11-12T02:26:02.542Z,101961.81
2022-11-12T02:29:23.865Z,101964.03
2022-11-12T02:32:45.155Z,101968.41
2022-11-12T02:36:06.981Z,101970.72
2022-11-12T02:39:28.134Z,101978.22
2022-11-12T02:42:49.368Z,101977.31
2022-11-12T02:46:12.123Z,101964.28
2022-11-12T02:49:33.113Z,101972.84
2022-11-12T02:52:54.266Z,101984.31
2022-11-12T02:56:15.784Z,101983.09
2022-11-12T02:59:37.541Z,101976.50
2022-11-12T03:02:59.904Z,101986.56
2022-11-12T03:06:21.016Z,101985.81
2022-11-12T03:09:42.021Z,101985.50
2022-11-12T03:13:02.979Z,101979.47
2022-11-12T03:16:24.010Z,101980.94
2022-11-12T03:19:45.586Z,101978.81
2022-11-12T03:23:10.473Z,101991.66
2022-11-12T03:26:35.727Z,101975.56
2022-11-12T03:30:00.294Z,101981.41
2022-11-12T03:33:22.334Z,101942.41
2022-11-12T03:36:45.397Z,101973.75
2022-11-12T03:40:07.635Z,101977.66
2022-11-12T03:43:28.576Z,101984.75
2022-11-12T03:46:49.796Z,101987.81
2022-11-12T03:50:12.046Z,101973.84
2022-11-12T03:53:33.024Z,101974.94
2022-11-12T03:56:55.158Z,101969.03
2022-11-12T04:00:17.385Z,101975.91
2022-11-12T04:03:38.654Z,101973.72
2022-11-12T04:07:19.018Z,101972.69
2022-11-12T04:10:40.362Z,101971.63
2022-11-12T04:14:01.712Z,101973.97
2022-11-12T04:17:52.302Z,101977.69
2022-11-12T04:21:34.268Z,101968.66
2022-11-12T04:25:14.605Z,101974.06
2022-11-12T04:28:36.154Z,101952.56
2022-11-12T04:31:57.334Z,101958.75
2022-11-12T04:35:20.052Z,101946.78
2022-11-12T04:38:41.119Z,101961.59
2022-11-12T04:42:20.909Z,101960.75
2022-11-12T04:45:43.360Z,101960.44
2022-11-12T04:49:05.732Z,101963.91
2022-11-12T04:52:28.186Z,101960.84
2022-11-12T04:55:53.527Z,101964.75
2022-11-12T04:59:14.717Z,101966.66
2022-11-12T05:02:36.164Z,101962.22
2022-11-12T05:06:27.252Z,101960.25
2022-11-12T05:09:48.492Z,101973.66
2022-11-12T05:13:10.188Z,101963.94
2022-11-12T05:16:30.889Z,101963.63
2022-11-12T05:19:52.637Z,101962.34
2022-11-12T05:23:14.274Z,101963.66
2022-11-12T05:26:35.325Z,101971.13
2022-11-12T05:29:58.223Z,101974.88
2022-11-12T05:33:22.772Z,101970.94
2022-11-12T05:36:44.451Z,101973.50
2022-11-12T05:40:05.716Z,101980.13
2022-11-12T05:43:26.989Z,101973.13
2022-11-12T05:46:51.065Z,101968.50
2022-11-12T05:50:13.182Z,101976.44
2022-11-12T05:53:34.318Z,101973.50
2022-11-12T05:56:55.439Z,101987.81
2022-11-12T06:00:20.733Z,101983.56
2022-11-12T06:03:45.871Z,101985.28
2022-11-12T06:07:08.686Z,101991.91
2022-11-12T06:10:29.950Z,101986.72
2022-11-12T06:13:50.864Z,101989.97
2022-11-12T06:17:12.765Z,101987.03
2022-11-12T06:20:34.524Z,101989.31
2022-11-12T06:23:58.632Z,101990.47
2022-11-12T06:27:20.568Z,102002.66
2022-11-12T06:30:41.748Z,101994.13
2022-11-12T06:34:03.620Z,101995.78
2022-11-12T06:37:24.585Z,102000.19
2022-11-12T06:40:45.413Z,101996.16
2022-11-12T06:44:09.039Z,102010.00
2022-11-12T06:47:30.475Z,102006.53
2022-11-12T06:50:52.944Z,102005.50
2022-11-12T06:54:23.793Z,102020.28
2022-11-12T06:57:45.297Z,102018.97
2022-11-12T07:01:12.553Z,102035.22
2022-11-12T07:04:34.525Z,102037.88
2022-11-12T07:08:00.880Z,102023.38
2022-11-12T07:11:22.693Z,102027.56
2022-11-12T07:14:43.803Z,102042.50
2022-11-12T07:18:05.243Z,102028.34
2022-11-12T07:21:26.934Z,102039.59
2022-11-12T07:24:47.924Z,102029.22
2022-11-12T07:28:11.210Z,102030.31
2022-11-12T07:31:32.225Z,102032.06
2022-11-12T07:34:53.400Z,102036.47
2022-11-12T07:38:15.501Z,102034.94
2022-11-12T07:41:36.509Z,102042.50
2022-11-12T07:44:58.117Z,102040.16
2022-11-12T07:48:19.320Z,102044.81
2022-11-12T07:51:40.746Z,102018.22
2022-11-12T07:55:02.399Z,102034.13
2022-11-12T07:58:25.165Z,102050.50
2022-11-12T08:01:46.565Z,102053.66
2022-11-12T08:05:14.478Z,102049.53
2022-11-12T08:08:39.079Z,102038.97
2022-11-12T08:12:00.735Z,102048.03
2022-11-12T08:15:23.260Z,102050.72
2022-11-12T08:18:46.137Z,102043.72
2022-11-12T08:22:07.117Z,102051.44
2022-11-12T08:25:28.644Z,102055.09
2022-11-12T08:28:50.016Z,102058.06
2022-11-12T08:32:11.519Z,102068.03
2022-11-12T08:35:33.361Z,102071.69
2022-11-12T08:38:54.790Z,102073.38
2022-11-12T08:42:16.389Z,102082.28
2022-11-12T08:45:42.525Z,102080.16
2022-11-12T08:49:03.364Z,102087.25
2022-11-12T08:52:24.874Z,102078.38
2022-11-12T08:55:46.888Z,102091.53
2022-11-12T08:59:08.551Z,102100.66
2022-11-12T09:02:29.887Z,102103.03
2022-11-12T09:05:52.111Z,102088.81
2022-11-12T09:09:13.636Z,102112.41
2022-11-12T09:12:36.704Z,102128.06
2022-11-12T09:16:02.481Z,102109.56
2022-11-12T09:19:23.883Z,102124.88
2022-11-12T09:22:46.027Z,102112.97
2022-11-12T09:26:08.406Z,102114.78
2022-11-12T09:29:30.018Z,102101.25
2022-11-12T09:32:51.564Z,102114.38
2022-11-12T09:36:12.602Z,102115.94
2022-11-12T09:39:34.033Z,102114.63
2022-11-12T09:42:56.168Z,102122.63
2022-11-12T09:46:29.553Z,102113.59
2022-11-12T09:49:58.612Z,102113.13
2022-11-12T09:53:21.637Z,102126.16
2022-11-12T09:56:42.694Z,102111.91
2022-11-12T10:00:04.352Z,102118.22
2022-11-12T10:03:35.242Z,102098.25
2022-11-12T10:07:14.285Z,102106.56
2022-11-12T10:10:45.942Z,102111.19
2022-11-12T10:14:38.416Z,102088.69
2022-11-12T10:18:05.463Z,102093.94
2022-11-12T10:21:45.437Z,102104.25
2022-11-12T10:25:17.994Z,102098.06
2022-11-12T10:29:10.370Z,102075.78
2022-11-12T10:32:32.695Z,102088.75
2022-11-12T10:35:54.598Z,102084.13
2022-11-12T10:39:35.108Z,102095.09
2022-11-12T10:43:05.554Z,102085.59
2022-11-12T10:46:32.830Z,102077.63
2022-11-12T10:50:06.400Z,102076.63
2022-11-12T10:53:38.852Z,102066.91
2022-11-12T10:57:20.594Z,102057.19
2022-11-12T11:00:55.065Z,102069.72
2022-11-12T11:04:36.228Z,102067.66
2022-11-12T11:07:58.086Z,102049.84
2022-11-12T11:11:28.647Z,102055.97
2022-11-12T11:15:19.588Z,102051.72
2022-11-12T11:18:42.967Z,102058.41
2022-11-12T11:22:25.469Z,102054.47
2022-11-12T11:25:48.854Z,102048.09
2022-11-12T11:29:43.462Z,102060.13
2022-11-12T11:33:22.234Z,102056.47
2022-11-12T11:36:59.379Z,102054.91
2022-11-12T11:40:26.411Z,102051.13
2022-11-12T11:44:12.696Z,102044.44
2022-11-12T11:48:00.622Z,102073.50
2022-11-12T11:51:34.964Z,102087.28
2022-11-12T11:55:34.489Z,102075.19
2022-11-12T11:59:33.269Z,102086.38
2022-11-12T12:03:19.892Z,102074.75
2022-11-12T12:07:07.902Z,102074.97
2022-11-12T12:11:08.320Z,102081.88
2022-11-12T12:14:49.019Z,102088.56
2022-11-12T12:18:29.078Z,102089.00
2022-11-12T12:21:51.901Z,102084.75
2022-11-12T12:25:29.276Z,102080.97
2022-11-12T12:29:03.089Z,102081.56
2022-11-12T12:32:36.609Z,102084.66
2022-11-12T12:36:04.345Z,102080.50
2022-11-12T12:39:28.051Z,102075.72
2022-11-12T12:43:20.927Z,102076.00
2022-11-12T12:46:54.707Z,102068.81
2022-11-12T12:50:16.714Z,102079.28
2022-11-12T12:53:38.011Z,102078.19
2022-11-12T12:56:59.647Z,102087.56
2022-11-12T13:00:40.581Z,102082.41
2022-11-12T13:04:04.510Z,102078.63
2022-11-12T13:07:48.691Z,102083.09
2022-11-12T13:11:10.341Z,102081.56
2022-11-12T13:14:36.900Z,102086.47
2022-11-12T13:17:58.200Z,102096.66
2022-11-12T13:21:21.410Z,102095.97
2022-11-12T13:25:05.863Z,102094.66
2022-11-12T13:28:27.489Z,102090.03
2022-11-12T13:31:48.756Z,102081.84
2022-11-12T13:35:12.974Z,102098.22
2022-11-12T13:38:38.397Z,102104.13
2022-11-12T13:42:18.820Z,102092.06
2022-11-12T13:45:50.705Z,102097.19
2022-11-12T13:49:15.101Z,102107.69
2022-11-12T13:52:36.242Z,102108.00
2022-11-12T13:55:57.554Z,102105.16
2022-11-12T13:59:23.198Z,102109.94
2022-11-12T14:02:46.676Z,102111.78
2022-11-12T14:06:16.264Z,102111.03
2022-11-12T14:10:08.304Z,102120.06
2022-11-12T14:13:42.543Z,102120.06
2022-11-12T14:17:22.395Z,102122.06
2022-11-12T14:20:43.851Z,102119.88
2022-11-12T14:24:05.830Z,102115.16
2022-11-12T14:27:29.746Z,102122.91
2022-11-12T14:30:51.145Z,102127.13
2022-11-12T14:34:32.907Z,102127.34
2022-11-12T14:38:15.210Z,102122.06
2022-11-12T14:41:39.306Z,102124.31
2022-11-12T14:45:00.216Z,102122.69
2022-11-12T14:48:21.849Z,102120.53
2022-11-12T14:51:48.666Z,102121.66
2022-11-12T14:55:24.313Z,102131.50
2022-11-12T14:58:46.205Z,102137.56
2022-11-12T15:02:42.632Z,102135.63
2022-11-12T15:06:09.273Z,102137.88
2022-11-12T15:09:36.655Z,102133.03
2022-11-12T15:13:13.757Z,102131.00
2022-11-12T15:16:36.123Z,102130.44
2022-11-12T15:20:21.597Z,102131.59
2022-11-12T15:24:10.041Z,102140.41
2022-11-12T15:27:41.231Z,102143.03
2022-11-12T15:31:04.074Z,102139.97
2022-11-12T15:34:25.097Z,102142.81
2022-11-12T15:37:47.123Z,102136.97
2022-11-12T15:41:22.061Z,102141.19
2022-11-12T15:44:43.868Z,102141.03
2022-11-12T15:48:04.977Z,102134.31
2022-11-12T15:51:25.968Z,102142.66
2022-11-12T15:54:47.338Z,102114.97
2022-11-12T15:58:14.847Z,102124.00
2022-11-12T16:01:37.726Z,102133.84
2022-11-12T16:04:58.686Z,102141.50
2022-11-12T16:08:21.102Z,102148.25
2022-11-12T16:11:42.457Z,102139.22
2022-11-12T16:15:04.479Z,102149.78
2022-11-12T16:18:25.904Z,102156.03
2022-11-12T16:21:47.067Z,102147.09
2022-11-12T16:25:08.150Z,102150.56
2022-11-12T16:28:31.432Z,102151.78
2022-11-12T16:31:56.016Z,102156.63
2022-11-12T16:35:23.156Z,102151.56
2022-11-12T16:38:44.552Z,102164.44
2022-11-12T16:42:05.680Z,102168.38
2022-11-12T16:45:35.325Z,102126.81
2022-11-12T16:48:56.863Z,102148.13
2022-11-12T16:52:21.159Z,102147.09
2022-11-12T16:55:42.240Z,102162.31
2022-11-12T16:59:03.464Z,102151.16
2022-11-12T17:02:24.526Z,102151.28
2022-11-12T17:05:45.367Z,102156.16
2022-11-12T17:09:08.441Z,102147.34
2022-11-12T17:12:29.691Z,102153.75
2022-11-12T17:15:58.476Z,102158.78
2022-11-12T17:19:19.385Z,102151.94
2022-11-12T17:22:42.239Z,102157.72
2022-11-12T17:26:06.068Z,102150.84
2022-11-12T17:29:27.607Z,102160.19
2022-11-12T17:32:49.177Z,102166.88
2022-11-12T17:36:12.906Z,102161.41
2022-11-12T17:39:34.780Z,102166.16
2022-11-12T17:42:56.180Z,102170.78
2022-11-12T17:46:18.886Z,102163.31
2022-11-12T17:49:41.227Z,102168.75
2022-11-12T17:53:02.481Z,102173.53
2022-11-12T17:56:25.439Z,102156.41
2022-11-12T17:59:46.618Z,102163.84
2022-11-12T18:03:07.611Z,102175.75
2022-11-12T18:06:32.064Z,102172.34
2022-11-12T18:09:53.581Z,102173.50
2022-11-12T18:13:16.061Z,102167.34
2022-11-12T18:16:37.910Z,102163.88
2022-11-12T18:19:59.633Z,102170.78
2022-11-12T18:23:20.976Z,102155.22
2022-11-12T18:26:42.322Z,102166.16
2022-11-12T18:30:04.458Z,102165.94
2022-11-12T18:33:26.253Z,102170.06
2022-11-12T18:36:50.703Z,102163.75
2022-11-12T18:40:12.408Z,102165.53
2022-11-12T18:43:33.991Z,102166.16
2022-11-12T18:46:55.191Z,102173.78
2022-11-12T18:50:16.640Z,102168.63
2022-11-12T18:53:38.966Z,102166.16
2022-11-12T18:56:59.945Z,102180.78
2022-11-12T19:00:21.483Z,102176.97
2022-11-12T19:03:42.984Z,102183.03
2022-11-12T19:07:04.038Z,102176.00
2022-11-12T19:10:25.125Z,102190.38
2022-11-12T19:13:50.507Z,102178.28
2022-11-12T19:17:11.697Z,102187.06
2022-11-12T19:20:33.801Z,102192.75
2022-11-12T19:23:56.507Z,102181.00
2022-11-12T19:27:18.106Z,102189.44
2022-11-12T19:30:40.014Z,102178.88
2022-11-12T19:34:01.938Z,102189.31
2022-11-12T19:37:33.538Z,102187.63
2022-11-12T19:40:55.418Z,102192.06
2022-11-12T19:44:16.881Z,102184.81
2022-11-12T19:47:37.828Z,102189.19
2022-11-12T19:51:06.847Z,102192.63
2022-11-12T19:54:27.783Z,102189.44
2022-11-12T19:57:48.965Z,102189.91
2022-11-12T20:01:13.927Z,102170.44
2022-11-12T20:04:35.894Z,102182.09
2022-11-12T20:07:57.040Z,102190.97
2022-11-12T20:11:19.335Z,102183.72
2022-11-12T20:14:40.920Z,102194.28
2022-11-12T20:18:03.361Z,102191.47
2022-11-12T20:21:25.164Z,102191.94
2022-11-12T20:24:46.994Z,102194.44
2022-11-12T20:28:08.857Z,102195.00
2022-11-12T20:31:32.064Z,102186.25
2022-11-12T20:34:56.128Z,102197.00
2022-11-12T20:38:17.448Z,102205.09
2022-11-12T20:41:39.587Z,102190.03
2022-11-12T20:45:01.681Z,102194.91
2022-11-12T20:48:22.761Z,102208.88
2022-11-12T20:51:43.965Z,102207.59
2022-11-12T20:55:06.202Z,102200.81
2022-11-12T20:58:29.987Z,102198.56
2022-11-12T21:01:52.513Z,102206.53
2022-11-12T21:05:14.969Z,102217.56
2022-11-12T21:08:36.049Z,102207.09
2022-11-12T21:11:58.362Z,102212.34
2022-11-12T21:15:19.569Z,102203.44
2022-11-12T21:18:41.434Z,102218.28
2022-11-12T21:22:02.874Z,102207.25
2022-11-12T21:25:24.265Z,102207.94
2022-11-12T21:28:46.671Z,102199.41
2022-11-12T21:32:08.078Z,102217.78
2022-11-12T21:35:29.071Z,102208.28
2022-11-12T21:39:01.028Z,102206.97
2022-11-12T21:42:22.155Z,102210.56
2022-11-12T21:45:47.492Z,102211.50
2022-11-12T21:49:09.207Z,102216.00
2022-11-12T21:52:33.723Z,102197.97
2022-11-12T21:55:54.449Z,102212.56
2022-11-12T21:59:17.103Z,102208.91
2022-11-12T22:02:38.145Z,102214.63
2022-11-12T22:06:00.529Z,102200.97
2022-11-12T22:09:21.910Z,102201.78
2022-11-12T22:12:58.676Z,102203.44
2022-11-12T22:16:25.645Z,102202.50
2022-11-12T22:19:46.890Z,102201.09
2022-11-12T22:23:08.433Z,102201.63
2022-11-12T22:26:33.758Z,102206.75
2022-11-12T22:29:56.244Z,102206.66
2022-11-12T22:33:18.112Z,102205.22
2022-11-12T22:36:40.402Z,102181.81
2022-11-12T22:40:06.923Z,102207.94
2022-11-12T22:43:33.299Z,102209.50
2022-11-12T22:46:54.117Z,102212.44
2022-11-12T22:50:16.198Z,102184.72
2022-11-12T22:53:37.484Z,102202.59
2022-11-12T22:56:58.704Z,102204.38
2022-11-12T23:00:31.250Z,102199.25
2022-11-12T23:03:56.807Z,102198.69
2022-11-12T23:07:18.505Z,102203.41
2022-11-12T23:10:45.481Z,102212.00
2022-11-12T23:14:07.255Z,102218.13
2022-11-12T23:17:28.899Z,102210.09
2022-11-12T23:20:50.201Z,102220.41
2022-11-12T23:24:12.109Z,102213.28
2022-11-12T23:27:33.179Z,102185.66
2022-11-12T23:30:54.349Z,102207.94
2022-11-12T23:34:16.014Z,102204.84
2022-11-12T23:37:37.092Z,102199.63
2022-11-12T23:40:58.159Z,102201.66
2022-11-12T23:44:19.853Z,102201.75
2022-11-12T23:47:41.394Z,102196.69
2022-11-12T23:51:13.933Z,102203.69
2022-11-12T23:54:35.443Z,102185.84
2022-11-12T23:57:57.305Z,102184.44
